createdAt,value
2023-01-31T00:01:18.105Z,7.70
2023-01-31T00:03:46.118Z,8.63
2023-01-31T00:06:21.303Z,15.00
2023-01-31T00:08:50.183Z,10.03
2023-01-31T00:11:18.759Z,5.73
2023-01-31T00:13:46.521Z,12.13
2023-01-31T00:16:14.427Z,10.50
2023-01-31T00:18:41.849Z,16.57
2023-01-31T00:21:16.843Z,6.20
2023-01-31T00:23:44.823Z,5.60
2023-01-31T00:26:14.068Z,6.20
2023-01-31T00:28:42.233Z,11.03
2023-01-31T00:31:11.739Z,12.33
2023-01-31T00:33:39.937Z,8.60
2023-01-31T00:36:08.721Z,10.43
2023-01-31T00:38:36.877Z,14.13
2023-01-31T00:41:05.073Z,14.53
2023-01-31T00:43:35.462Z,10.00
2023-01-31T00:46:06.169Z,12.33
2023-01-31T00:48:34.965Z,8.90
2023-01-31T00:51:02.863Z,9.40
2023-01-31T00:53:30.456Z,8.87
2023-01-31T00:56:12.339Z,6.77
2023-01-31T00:58:40.330Z,16.00
2023-01-31T01:01:14.965Z,9.67
2023-01-31T01:03:47.004Z,9.73
2023-01-31T01:06:15.324Z,10.37
2023-01-31T01:08:44.059Z,12.07
2023-01-31T01:11:16.109Z,12.47
2023-01-31T01:13:43.971Z,18.27
2023-01-31T01:16:22.433Z,7.70
2023-01-31T01:18:50.439Z,4.03
2023-01-31T01:21:20.885Z,19.17
2023-01-31T01:23:48.746Z,13.53
2023-01-31T01:26:17.460Z,11.07
2023-01-31T01:28:44.862Z,7.00
2023-01-31T01:31:13.461Z,5.87
2023-01-31T01:33:41.503Z,9.03
2023-01-31T01:36:13.524Z,11.07
2023-01-31T01:38:43.814Z,7.90
2023-01-31T01:41:12.629Z,6.17
2023-01-31T01:43:41.081Z,8.50
2023-01-31T01:46:09.972Z,8.37
2023-01-31T01:48:37.716Z,9.57
2023-01-31T01:51:07.879Z,9.03
2023-01-31T01:53:38.518Z,10.23
2023-01-31T01:56:23.227Z,13.90
2023-01-31T01:58:55.417Z,10.27
2023-01-31T02:01:23.535Z,14.90
2023-01-31T02:03:54.211Z,10.20
2023-01-31T02:06:22.295Z,7.63
2023-01-31T02:08:50.038Z,13.20
2023-01-31T02:11:25.159Z,10.63
2023-01-31T02:14:03.926Z,13.60
2023-01-31T02:16:34.351Z,10.93
2023-01-31T02:19:12.105Z,12.07
2023-01-31T02:22:05.075Z,13.80
2023-01-31T02:24:32.690Z,7.80
2023-01-31T02:27:19.095Z,13.43
2023-01-31T02:29:53.126Z,14.60
2023-01-31T02:32:39.156Z,10.10
2023-01-31T02:35:26.951Z,8.30
2023-01-31T02:38:13.437Z,11.43
2023-01-31T02:40:49.153Z,8.50
2023-01-31T02:43:23.646Z,14.73
2023-01-31T02:45:51.121Z,14.63
2023-01-31T02:48:36.782Z,7.17
2023-01-31T02:51:07.417Z,10.57
2023-01-31T02:53:37.395Z,15.00
2023-01-31T02:56:18.441Z,14.77
2023-01-31T02:59:01.822Z,14.27
2023-01-31T03:01:31.165Z,11.40
2023-01-31T03:04:00.117Z,6.40
2023-01-31T03:06:27.467Z,14.77
2023-01-31T03:09:25.752Z,12.43
2023-01-31T03:11:59.563Z,9.80
2023-01-31T03:14:45.831Z,6.33
2023-01-31T03:17:32.844Z,13.63
2023-01-31T03:20:22.507Z,7.77
2023-01-31T03:22:52.493Z,5.80
2023-01-31T03:25:23.004Z,14.63
2023-01-31T03:27:56.901Z,8.93
2023-01-31T03:30:38.377Z,15.03
2023-01-31T03:33:18.252Z,12.97
2023-01-31T03:35:48.005Z,13.77
2023-01-31T03:38:17.734Z,8.50
2023-01-31T03:40:48.739Z,7.30
2023-01-31T03:43:36.223Z,7.10
2023-01-31T03:46:08.580Z,14.17
2023-01-31T03:48:38.809Z,8.30
2023-01-31T03:51:08.140Z,13.97
2023-01-31T03:53:36.181Z,11.73
2023-01-31T03:56:30.085Z,13.30
2023-01-31T03:58:59.489Z,9.07
2023-01-31T04:01:29.111Z,11.80
2023-01-31T04:04:02.137Z,10.90
2023-01-31T04:06:30.450Z,10.13
2023-01-31T04:08:58.617Z,10.40
2023-01-31T04:11:26.912Z,10.87
2023-01-31T04:13:54.140Z,10.97
2023-01-31T04:16:21.367Z,8.57
2023-01-31T04:18:51.665Z,22.73
2023-01-31T04:21:18.966Z,8.50
2023-01-31T04:23:46.240Z,7.30
2023-01-31T04:26:13.835Z,11.27
2023-01-31T04:28:41.259Z,10.63
2023-01-31T04:31:08.591Z,12.00
2023-01-31T04:33:37.220Z,11.47
2023-01-31T04:36:04.773Z,10.67
2023-01-31T04:38:31.941Z,8.93
2023-01-31T04:41:00.114Z,14.70
2023-01-31T04:43:27.914Z,7.37
2023-01-31T04:45:55.062Z,10.17
2023-01-31T04:48:22.981Z,10.53
2023-01-31T04:50:50.230Z,13.80
2023-01-31T04:53:17.441Z,8.73
2023-01-31T04:55:44.587Z,11.83
2023-01-31T04:58:11.753Z,12.57
2023-01-31T05:00:38.955Z,11.00
2023-01-31T05:03:06.282Z,10.43
2023-01-31T05:05:36.309Z,13.10
2023-01-31T05:08:03.929Z,13.07
2023-01-31T05:10:31.616Z,11.53
2023-01-31T05:12:58.885Z,9.80
2023-01-31T05:15:26.625Z,6.83
2023-01-31T05:17:54.491Z,15.53
2023-01-31T05:20:21.730Z,18.27
2023-01-31T05:22:49.801Z,8.00
2023-01-31T05:25:17.040Z,7.80
2023-01-31T05:27:44.878Z,6.13
2023-01-31T05:30:13.605Z,9.20
2023-01-31T05:32:41.388Z,9.03
2023-01-31T05:35:08.725Z,5.50
2023-01-31T05:37:35.950Z,10.63
2023-01-31T05:40:03.837Z,7.03
2023-01-31T05:42:31.201Z,12.87
2023-01-31T05:44:58.711Z,9.47
2023-01-31T05:47:26.927Z,13.93
2023-01-31T05:49:54.116Z,5.27
2023-01-31T05:52:21.273Z,12.37
2023-01-31T05:54:48.439Z,9.53
2023-01-31T05:57:15.836Z,11.43
2023-01-31T05:59:43.057Z,7.90
2023-01-31T06:02:11.481Z,7.00
2023-01-31T06:04:38.774Z,10.93
2023-01-31T06:07:08.014Z,15.33
2023-01-31T06:09:38.761Z,12.07
2023-01-31T06:12:06.170Z,12.80
2023-01-31T06:14:33.556Z,12.10
2023-01-31T06:17:00.776Z,13.97
2023-01-31T06:19:27.993Z,8.97
2023-01-31T06:21:55.232Z,11.27
2023-01-31T06:24:22.473Z,8.40
2023-01-31T06:26:49.702Z,14.27
2023-01-31T06:29:16.951Z,17.57
2023-01-31T06:31:45.211Z,13.40
2023-01-31T06:34:12.966Z,7.37
2023-01-31T06:36:40.137Z,9.53
2023-01-31T06:39:08.316Z,14.57
2023-01-31T06:41:35.457Z,8.10
2023-01-31T06:44:03.651Z,7.37
2023-01-31T06:46:31.615Z,6.67
2023-01-31T06:48:58.870Z,8.73
2023-01-31T06:51:26.095Z,9.43
2023-01-31T06:53:53.972Z,6.53
2023-01-31T06:56:21.214Z,9.77
2023-01-31T06:58:48.545Z,13.67
2023-01-31T07:01:16.174Z,12.07
2023-01-31T07:03:47.887Z,9.40
2023-01-31T07:06:17.231Z,13.57
2023-01-31T07:08:44.386Z,10.07
2023-01-31T07:11:11.545Z,10.90
2023-01-31T07:13:39.119Z,6.23
2023-01-31T07:16:06.500Z,10.23
2023-01-31T07:18:33.666Z,8.80
2023-01-31T07:21:01.193Z,9.00
2023-01-31T07:23:28.409Z,12.23
2023-01-31T07:25:55.720Z,9.33
2023-01-31T07:28:22.889Z,12.17
2023-01-31T07:30:51.736Z,11.20
2023-01-31T07:33:19.207Z,7.83
2023-01-31T07:35:46.834Z,12.70
2023-01-31T07:38:14.121Z,8.47
2023-01-31T07:40:41.311Z,9.23
2023-01-31T07:43:08.481Z,8.07
2023-01-31T07:45:36.028Z,14.03
2023-01-31T07:48:06.120Z,13.40
2023-01-31T07:50:33.336Z,10.50
2023-01-31T07:53:00.930Z,12.80
2023-01-31T07:55:28.175Z,7.87
2023-01-31T07:57:55.571Z,9.90
2023-01-31T08:00:41.667Z,16.60
2023-01-31T08:03:34.206Z,13.13
2023-01-31T08:06:03.115Z,8.57
2023-01-31T08:08:30.713Z,10.80
2023-01-31T08:10:59.168Z,8.13
2023-01-31T08:13:26.907Z,6.80
2023-01-31T08:15:54.503Z,9.83
2023-01-31T08:18:21.724Z,15.77
2023-01-31T08:20:48.897Z,16.73
2023-01-31T08:23:16.176Z,11.37
2023-01-31T08:25:43.440Z,14.07
2023-01-31T08:28:13.852Z,14.47
2023-01-31T08:30:50.321Z,18.50
2023-01-31T08:33:25.436Z,10.37
2023-01-31T08:35:52.689Z,14.03
2023-01-31T08:38:20.292Z,17.77
2023-01-31T08:40:47.533Z,15.57
2023-01-31T08:43:15.003Z,21.03
2023-01-31T08:45:42.420Z,15.00
2023-01-31T08:48:09.691Z,11.20
2023-01-31T08:50:37.353Z,12.57
2023-01-31T08:53:05.685Z,17.07
2023-01-31T08:55:35.327Z,16.93
2023-01-31T08:58:02.745Z,21.17
2023-01-31T09:00:30.432Z,24.83
2023-01-31T09:03:01.754Z,21.80
2023-01-31T09:05:30.321Z,19.87
2023-01-31T09:07:57.491Z,18.77
2023-01-31T09:10:24.808Z,24.17
2023-01-31T09:12:54.439Z,20.30
2023-01-31T09:15:22.274Z,23.37
2023-01-31T09:17:50.031Z,21.93
2023-01-31T09:20:17.387Z,21.43
2023-01-31T09:22:44.650Z,25.80
2023-01-31T09:25:12.083Z,20.60
2023-01-31T09:27:39.640Z,19.30
2023-01-31T09:30:08.252Z,26.30
2023-01-31T09:32:35.796Z,23.73
2023-01-31T09:35:04.447Z,22.73
2023-01-31T09:37:32.500Z,22.27
2023-01-31T09:39:59.660Z,28.37
2023-01-31T09:42:42.552Z,21.43
2023-01-31T09:45:30.035Z,30.03
2023-01-31T09:47:58.590Z,17.67
2023-01-31T09:50:41.165Z,27.70
2023-01-31T09:53:21.746Z,21.90
2023-01-31T09:55:52.037Z,18.77
2023-01-31T09:58:28.605Z,25.70
2023-01-31T10:01:14.867Z,22.70
2023-01-31T10:03:49.366Z,24.30
2023-01-31T10:06:23.249Z,23.63
2023-01-31T10:09:05.885Z,18.00
2023-01-31T10:11:52.002Z,22.53
2023-01-31T10:14:42.120Z,17.37
2023-01-31T10:17:21.079Z,21.37
2023-01-31T10:20:26.933Z,20.80
2023-01-31T10:23:04.284Z,22.30
2023-01-31T10:25:47.206Z,20.90
2023-01-31T10:28:16.478Z,17.10
2023-01-31T10:30:50.210Z,13.57
2023-01-31T10:33:26.130Z,14.97
2023-01-31T10:35:55.445Z,23.67
2023-01-31T10:38:26.147Z,21.60
2023-01-31T10:40:56.537Z,18.20
2023-01-31T10:43:34.590Z,13.07
2023-01-31T10:46:02.617Z,18.87
2023-01-31T10:48:30.552Z,17.93
2023-01-31T10:51:02.535Z,19.53
2023-01-31T10:53:38.931Z,21.83
2023-01-31T10:56:08.409Z,20.53
2023-01-31T10:58:36.462Z,22.57
2023-01-31T11:01:15.077Z,19.80
2023-01-31T11:03:48.077Z,18.03
2023-01-31T11:06:15.909Z,16.77
2023-01-31T11:08:47.388Z,15.57
2023-01-31T11:11:19.127Z,17.57
2023-01-31T11:14:01.657Z,13.60
2023-01-31T11:16:31.278Z,25.00
2023-01-31T11:18:58.896Z,19.70
2023-01-31T11:21:28.140Z,14.37
2023-01-31T11:23:59.209Z,15.20
2023-01-31T11:26:27.864Z,13.83
2023-01-31T11:28:55.621Z,13.00
2023-01-31T11:31:30.658Z,16.17
2023-01-31T11:34:02.246Z,16.53
2023-01-31T11:36:33.135Z,14.10
2023-01-31T11:39:00.351Z,14.90
2023-01-31T11:41:37.733Z,11.97
2023-01-31T11:44:09.463Z,15.00
2023-01-31T11:46:52.251Z,15.10
2023-01-31T11:49:34.790Z,13.00
2023-01-31T11:52:04.058Z,10.50
2023-01-31T11:54:32.774Z,11.70
2023-01-31T11:57:00.948Z,14.90
2023-01-31T11:59:31.258Z,11.43
2023-01-31T12:02:00.491Z,16.00
2023-01-31T12:04:32.230Z,14.80
2023-01-31T12:07:01.820Z,13.63
2023-01-31T12:09:33.066Z,12.60
2023-01-31T12:12:07.737Z,13.43
2023-01-31T12:14:43.237Z,12.50
2023-01-31T12:17:14.711Z,12.87
2023-01-31T12:19:51.611Z,10.20
2023-01-31T12:22:25.158Z,15.00
2023-01-31T12:24:52.317Z,14.63
2023-01-31T12:27:38.461Z,10.97
2023-01-31T12:30:20.317Z,10.53
2023-01-31T12:32:54.737Z,12.93
2023-01-31T12:35:33.298Z,10.57
2023-01-31T12:38:27.719Z,12.17
2023-01-31T12:41:15.149Z,13.33
2023-01-31T12:43:50.987Z,14.27
2023-01-31T12:46:23.061Z,14.43
2023-01-31T12:48:59.531Z,14.50
2023-01-31T12:51:40.040Z,13.83
2023-01-31T12:54:24.823Z,10.07
2023-01-31T12:57:03.642Z,17.50
2023-01-31T12:59:39.848Z,16.50
2023-01-31T13:02:18.426Z,16.67
2023-01-31T13:04:58.946Z,16.80
2023-01-31T13:07:29.304Z,16.63
2023-01-31T13:09:58.667Z,20.00
2023-01-31T13:12:27.937Z,16.67
2023-01-31T13:15:09.749Z,14.83
2023-01-31T13:17:40.058Z,14.27
2023-01-31T13:20:13.139Z,19.43
2023-01-31T13:22:49.914Z,13.10
2023-01-31T13:25:20.400Z,16.30
2023-01-31T13:27:53.531Z,22.30
2023-01-31T13:30:29.484Z,17.50
2023-01-31T13:32:58.101Z,13.80
2023-01-31T13:35:29.276Z,14.27
2023-01-31T13:38:00.514Z,17.50
2023-01-31T13:40:32.170Z,14.67
2023-01-31T13:43:01.623Z,18.07
2023-01-31T13:45:39.320Z,15.30
2023-01-31T13:48:09.499Z,18.47
2023-01-31T13:50:42.203Z,22.13
2023-01-31T13:53:15.643Z,15.17
2023-01-31T13:55:45.012Z,12.83
2023-01-31T13:58:34.321Z,18.67
2023-01-31T14:01:09.980Z,13.60
2023-01-31T14:03:56.102Z,21.83
2023-01-31T14:06:23.290Z,15.20
2023-01-31T14:08:50.447Z,14.13
2023-01-31T14:11:17.631Z,13.60
2023-01-31T14:14:10.714Z,14.70
2023-01-31T14:16:43.387Z,13.17
2023-01-31T14:19:19.874Z,15.90
2023-01-31T14:21:53.447Z,11.93
2023-01-31T14:24:21.966Z,14.97
2023-01-31T14:26:51.452Z,15.50
2023-01-31T14:29:23.576Z,14.03
2023-01-31T14:31:51.846Z,16.50
2023-01-31T14:34:21.019Z,15.93
2023-01-31T14:37:01.634Z,16.33
2023-01-31T14:39:32.175Z,17.67
2023-01-31T14:42:16.757Z,18.10
2023-01-31T14:44:55.498Z,16.87
2023-01-31T14:47:41.655Z,17.73
2023-01-31T14:50:20.931Z,19.77
2023-01-31T14:52:48.808Z,26.47
2023-01-31T14:55:22.827Z,11.40
2023-01-31T14:57:52.354Z,20.10
2023-01-31T15:00:22.879Z,27.43
2023-01-31T15:02:56.740Z,19.70
2023-01-31T15:05:33.163Z,17.20
2023-01-31T15:08:00.276Z,16.13
2023-01-31T15:10:46.389Z,15.37
2023-01-31T15:13:32.418Z,16.50
2023-01-31T15:15:59.868Z,16.80
2023-01-31T15:18:29.247Z,16.80
2023-01-31T15:20:58.271Z,23.23
2023-01-31T15:23:26.963Z,19.43
2023-01-31T15:25:55.773Z,19.83
2023-01-31T15:28:25.804Z,23.00
2023-01-31T15:30:54.095Z,18.17
2023-01-31T15:33:31.138Z,18.57
2023-01-31T15:36:09.522Z,24.43
2023-01-31T15:38:45.484Z,19.00
2023-01-31T15:41:21.177Z,19.57
2023-01-31T15:43:48.836Z,23.70
2023-01-31T15:46:23.535Z,22.13
2023-01-31T15:48:50.774Z,21.20
2023-01-31T15:51:18.867Z,19.33
2023-01-31T15:53:47.231Z,19.30
2023-01-31T15:56:17.893Z,17.23
2023-01-31T15:58:50.563Z,21.73
2023-01-31T16:01:17.985Z,21.17
2023-01-31T16:03:56.404Z,19.10
2023-01-31T16:06:26.014Z,20.63
2023-01-31T16:09:00.781Z,16.83
2023-01-31T16:11:33.317Z,16.67
2023-01-31T16:14:02.251Z,17.63
2023-01-31T16:16:30.692Z,18.13
2023-01-31T16:18:59.583Z,21.63
2023-01-31T16:21:38.160Z,18.53
2023-01-31T16:24:11.539Z,24.83
2023-01-31T16:26:59.351Z,19.50
2023-01-31T16:29:52.815Z,15.70
2023-01-31T16:32:24.849Z,15.50
2023-01-31T16:34:57.376Z,17.80
2023-01-31T16:37:32.310Z,11.23
2023-01-31T16:40:01.479Z,18.10
2023-01-31T16:42:30.869Z,15.93
2023-01-31T16:44:58.310Z,18.30
2023-01-31T16:47:48.941Z,21.93
2023-01-31T16:50:24.648Z,17.93
2023-01-31T16:53:19.938Z,12.70
2023-01-31T16:55:47.183Z,12.83
2023-01-31T16:58:34.313Z,15.40
2023-01-31T17:01:15.378Z,16.50
2023-01-31T17:03:42.897Z,16.03
2023-01-31T17:06:10.963Z,13.07
2023-01-31T17:08:42.605Z,12.80
2023-01-31T17:11:16.614Z,12.33
2023-01-31T17:13:50.847Z,14.17
2023-01-31T17:16:25.009Z,16.33
2023-01-31T17:18:53.045Z,10.30
2023-01-31T17:21:21.763Z,16.77
2023-01-31T17:23:50.914Z,10.03
2023-01-31T17:26:22.328Z,9.23
2023-01-31T17:29:00.967Z,7.23
2023-01-31T17:31:29.894Z,8.03
2023-01-31T17:33:57.469Z,9.30
2023-01-31T17:36:25.183Z,10.97
2023-01-31T17:38:53.138Z,9.57
2023-01-31T17:41:21.283Z,10.43
2023-01-31T17:43:48.699Z,11.17
2023-01-31T17:46:17.079Z,9.20
2023-01-31T17:48:44.689Z,11.27
2023-01-31T17:51:12.598Z,9.10
2023-01-31T17:53:49.387Z,8.73
2023-01-31T17:56:18.709Z,5.40
2023-01-31T17:58:46.242Z,6.60
2023-01-31T18:01:14.365Z,5.93
2023-01-31T18:03:42.792Z,5.83
2023-01-31T18:06:10.791Z,5.90
2023-01-31T18:08:38.657Z,8.13
2023-01-31T18:11:10.081Z,9.10
2023-01-31T18:13:38.362Z,9.90
2023-01-31T18:16:06.847Z,4.80
2023-01-31T18:18:34.432Z,5.73
2023-01-31T18:21:02.693Z,6.47
2023-01-31T18:23:30.280Z,4.90
2023-01-31T18:25:57.432Z,4.57
2023-01-31T18:28:24.650Z,6.83
2023-01-31T18:30:51.861Z,5.47
2023-01-31T18:33:19.547Z,4.83
2023-01-31T18:35:55.528Z,5.50
2023-01-31T18:38:22.688Z,6.90
2023-01-31T18:40:50.779Z,5.13
2023-01-31T18:43:17.924Z,4.50
2023-01-31T18:45:45.087Z,3.80
2023-01-31T18:48:13.335Z,4.03
2023-01-31T18:50:40.548Z,4.33
2023-01-31T18:53:07.740Z,3.80
2023-01-31T18:55:35.012Z,4.33
2023-01-31T18:58:02.781Z,3.97
2023-01-31T19:00:35.734Z,6.20
2023-01-31T19:03:07.896Z,5.87
2023-01-31T19:05:37.260Z,5.70
2023-01-31T19:08:04.698Z,4.30
2023-01-31T19:10:31.869Z,5.17
2023-01-31T19:12:59.126Z,4.87
2023-01-31T19:15:26.274Z,4.90
2023-01-31T19:17:55.745Z,4.90
2023-01-31T19:20:22.911Z,4.53
2023-01-31T19:22:52.712Z,4.70
2023-01-31T19:25:20.116Z,7.37
2023-01-31T19:27:47.464Z,5.40
2023-01-31T19:30:14.916Z,5.53
2023-01-31T19:32:42.402Z,6.83
2023-01-31T19:35:09.767Z,5.40
2023-01-31T19:37:38.209Z,3.90
2023-01-31T19:40:05.572Z,3.90
2023-01-31T19:42:32.754Z,5.30
2023-01-31T19:44:59.924Z,6.33
2023-01-31T19:47:27.119Z,4.50
2023-01-31T19:49:54.626Z,4.43
2023-01-31T19:52:21.796Z,4.53
2023-01-31T19:54:48.959Z,4.10
2023-01-31T19:57:16.103Z,4.37
2023-01-31T19:59:44.086Z,6.20
2023-01-31T20:02:12.922Z,3.60
2023-01-31T20:04:41.221Z,4.93
2023-01-31T20:07:08.386Z,4.10
2023-01-31T20:09:35.861Z,4.70
2023-01-31T20:12:04.197Z,3.97
2023-01-31T20:14:31.507Z,4.00
2023-01-31T20:16:59.001Z,4.40
2023-01-31T20:19:26.672Z,4.33
2023-01-31T20:21:55.135Z,4.37
2023-01-31T20:24:22.954Z,4.20
2023-01-31T20:26:50.138Z,6.40
2023-01-31T20:29:17.317Z,4.17
2023-01-31T20:31:44.793Z,4.80
2023-01-31T20:34:12.087Z,3.93
2023-01-31T20:36:39.347Z,4.00
2023-01-31T20:39:06.521Z,4.70
2023-01-31T20:41:33.733Z,3.97
2023-01-31T20:44:00.927Z,4.60
2023-01-31T20:46:28.358Z,5.23
2023-01-31T20:48:58.033Z,5.00
2023-01-31T20:51:25.169Z,4.07
2023-01-31T20:53:52.449Z,4.17
2023-01-31T20:56:19.637Z,4.73
2023-01-31T20:58:46.859Z,4.37
2023-01-31T21:01:15.906Z,4.57
2023-01-31T21:03:43.143Z,4.13
2023-01-31T21:06:10.355Z,4.80
2023-01-31T21:08:37.922Z,3.90
2023-01-31T21:11:07.085Z,5.40
2023-01-31T21:13:35.196Z,4.13
2023-01-31T21:16:03.585Z,6.10
2023-01-31T21:18:31.773Z,4.80
2023-01-31T21:21:01.748Z,4.67
2023-01-31T21:23:28.908Z,4.83
2023-01-31T21:26:00.675Z,5.30
2023-01-31T21:28:27.906Z,5.10
2023-01-31T21:31:02.315Z,4.60
2023-01-31T21:33:29.623Z,5.43
2023-01-31T21:35:58.151Z,5.13
2023-01-31T21:38:25.528Z,5.07
2023-01-31T21:41:13.055Z,5.37
2023-01-31T21:43:40.975Z,5.00
2023-01-31T21:46:09.678Z,10.03
2023-01-31T21:48:37.018Z,5.60
2023-01-31T21:51:06.819Z,8.10
2023-01-31T21:53:34.506Z,9.00
2023-01-31T21:56:02.522Z,5.33
2023-01-31T21:58:30.865Z,6.23
2023-01-31T22:01:12.130Z,4.93
2023-01-31T22:03:43.639Z,5.40
2023-01-31T22:06:12.612Z,7.60
2023-01-31T22:08:40.207Z,5.60
2023-01-31T22:11:14.518Z,4.87
2023-01-31T22:13:45.551Z,6.20
2023-01-31T22:16:13.439Z,6.30
2023-01-31T22:18:41.109Z,7.93
2023-01-31T22:21:10.378Z,6.23
2023-01-31T22:23:38.314Z,7.13
2023-01-31T22:26:11.207Z,5.30
2023-01-31T22:28:39.735Z,6.07
2023-01-31T22:31:08.079Z,5.20
2023-01-31T22:33:36.393Z,7.13
2023-01-31T22:36:03.967Z,5.93
2023-01-31T22:38:31.392Z,6.70
2023-01-31T22:41:03.513Z,6.00
2023-01-31T22:43:31.146Z,6.10
2023-01-31T22:45:59.400Z,4.17
2023-01-31T22:48:27.802Z,4.93
2023-01-31T22:50:56.395Z,5.17
2023-01-31T22:53:27.483Z,6.57
2023-01-31T22:55:55.159Z,6.33
2023-01-31T22:58:22.444Z,4.67
2023-01-31T23:00:49.864Z,4.60
2023-01-31T23:03:17.313Z,4.47
2023-01-31T23:05:44.913Z,5.30
2023-01-31T23:08:13.558Z,4.63
2023-01-31T23:10:41.145Z,4.73
2023-01-31T23:13:09.050Z,4.93
2023-01-31T23:15:37.040Z,6.30
2023-01-31T23:18:05.194Z,5.73
2023-01-31T23:20:33.369Z,5.33
2023-01-31T23:23:00.858Z,4.83
2023-01-31T23:25:29.934Z,5.40
2023-01-31T23:27:57.669Z,5.33
2023-01-31T23:30:26.497Z,4.60
2023-01-31T23:32:53.979Z,5.40
2023-01-31T23:35:21.356Z,5.30
2023-01-31T23:37:51.377Z,5.23
2023-01-31T23:40:18.910Z,5.90
2023-01-31T23:42:46.290Z,7.03
2023-01-31T23:45:13.532Z,5.67
2023-01-31T23:47:44.513Z,4.97
2023-01-31T23:50:12.280Z,5.27
2023-01-31T23:52:40.031Z,7.10
2023-01-31T23:55:07.749Z,8.20
2023-01-31T23:57:35.177Z,7.50
